Weather observations for the past three days for
Zapata, TX
Imperial (Metric)
Date Time (cdt) Wind (mph) Vis. (mi.) Weather Sky Cond. Temperature (ºF) Relative Humidity Wind Chill (°F) Heat Index (°F) Pressure Precipitation (in)
Air Dwpt 6 hour altimeter (in) sea level (mb) 1 hr 3 hr 6 hr
Max. Min.
03 01:35 SE 8 G 20 10.00 Partly Cloudy SCT025 85.1 74.5 71% 93 29.92 0.0
03 01:15 S 9 G 20 10.00 Mostly Cloudy BKN025 85.3 74.7 71% 94 29.92 0.0
03 00:55 S 9 G 18 10.00 Partly Cloudy SCT025 85.3 74.5 104.4 85.3 70% 93 29.92 0.0
03 00:35 SE 12 G 22 10.00 Fair CLR 85.6 74.3 69% 94 29.92 0.0
03 00:15 SE 16 G 28 10.00 Fair CLR 86.2 74.1 67% 94 29.92 0.0
02 23:55 SE 10 G 17 10.00 Fair CLR 87.3 74.1 65% 96 29.91 0.0
02 23:35 S 14 G 20 10.00 Fair CLR 88.3 72.9 60% 96 29.9 0.0
02 23:15 SE 15 G 26 10.00 Fair CLR 89.4 72.1 57% 97 29.9 0.0
02 22:55 SE 17 G 23 10.00 Fair CLR 90.7 69.6 50% 96 29.89 0.0
02 22:35 SE 13 G 18 10.00 Fair CLR 91.9 66.9 44% 95 29.88 0.0
02 22:15 SE 12 G 17 10.00 Fair CLR 93 65.8 41% 96 29.88 0.0
02 21:55 SE 15 G 24 10.00 Fair CLR 94.1 63.7 37% 96 29.86 0.0
02 21:35 SE 12 G 21 10.00 Fair CLR 95.2 61.7 33% 96 29.85 0.0
02 21:15 SE 14 G 22 10.00 Fair CLR 96.3 62.6 33% 98 29.84 0.0
02 20:55 SE 13 G 21 10.00 Fair CLR 97.3 64.4 34% 100 29.82 0.0
02 20:35 SE 9 10.00 Fair CLR 98.8 59.5 27% 99 29.82 0.0
02 20:15 SE 8 10.00 Fair CLR 99.7 59 26% 100 29.82 0.0
02 19:55 SE 8 G 16 10.00 Fair CLR 100.9 59 25% 101 29.81 0.0
02 19:35 SE 9 10.00 Fair CLR 102.2 59.2 24% 103 29.81 0.0
02 19:15 E 8 10.00 Partly Cloudy SCT100 103.3 59.4 24% 104 29.81 0.0
02 18:55 SE 12 G 17 10.00 Mostly Cloudy BKN100 105.1 59.5 108.5 102.2 22% 106 29.8 0.0
02 18:35 SE 8 10.00 Partly Cloudy SCT100 104.5 59.4 23% 105 29.81 0.0
02 18:15 SE 10 G 17 10.00 Mostly Cloudy BKN100 106.7 59.4 21% 108 29.81 0.0
02 17:55 SE 7 10.00 Partly Cloudy SCT100 106.5 59.5 21% 108 29.8 0.0
02 17:35 SE 7 10.00 Fair CLR 106.9 59 21% 108 29.81 0.0
02 17:15 SE 10 10.00 Fair CLR 107.2 58.5 20% 108 29.81 0.0
02 16:55 NE 3 10.00 Fair CLR 107.1 58.1 20% 107 29.82 0.0
02 16:35 SE 7 10.00 Partly Cloudy SCT090 106.9 59.7 21% 108 29.82 0.0
02 16:15 SE 7 10.00 Fair CLR 108.5 59.9 21% 110 29.83 0.0
02 15:55 SE 7 10.00 Fair CLR 107.4 59 21% 108 29.84 0.0
02 15:35 SE 7 10.00 Fair CLR 106.7 60.6 22% 108 29.85 0.0
02 15:15 E 7 10.00 Partly Cloudy SCT080 106.7 61.5 23% 109 29.86 0.0
02 14:55 E 6 10.00 Partly Cloudy SCT080 106.7 62.6 24% 110 29.87 0.0
02 14:35 SE 8 10.00 Partly Cloudy SCT080 105.8 63.5 25% 109 29.88 0.0
02 14:15 SE 3 10.00 Fair CLR 104.5 62.8 26% 107 29.89 0.0
02 13:55 E 5 10.00 Fair CLR 104.4 63.7 27% 108 29.9 0.0
02 13:35 S 3 10.00 Fair CLR 103.3 64 28% 107 29.91 0.0
02 13:15 SE 10 10.00 Fair CLR 102.4 67.1 32% 108 29.92 0.0
02 12:55 SE 3 10.00 Fair CLR 101.3 67.8 101.3 80.8 34% 107 29.93 0.0
02 12:35 S 7 10.00 Fair CLR 100 68 35% 106 29.95 0.0
02 12:15 S 6 10.00 Fair CLR 98.6 69.8 39% 106 29.95 0.0
02 11:55 S 7 10.00 Fair CLR 96.8 70.9 43% 105 29.96 0.0
02 11:35 S 8 10.00 Fair CLR 95.5 71.6 46% 104 29.96 0.0
02 11:15 SE 6 10.00 Fair CLR 94.5 72.5 49% 103 29.97 0.0
02 10:55 S 8 10.00 Fair CLR 92.7 73.2 53% 102 29.98 0.0
02 10:35 SE 7 10.00 Fair CLR 92.3 73.4 54% 102 29.98 0.0
02 10:15 SE 6 10.00 Fair CLR 90.3 73.6 58% 99 29.97 0.0
02 09:55 SE 6 10.00 Fair CLR 89.2 73.8 60% 98 29.97 0.0
02 09:35 S 8 10.00 Fair CLR 87.3 73.8 64% 95 29.97 0.0
02 09:15 SE 8 10.00 Fair CLR 86 73.9 67% 94 29.97 0.0
02 08:55 SE 7 10.00 Fair CLR 84.7 74.3 71% 92 29.97 0.0
02 08:35 SE 6 10.00 Fair CLR 83.5 74.3 74% 91 29.97 0.0
02 08:15 SE 7 10.00 Fair CLR 82.2 74.1 77% 88 29.96 0.0
02 07:55 SE 5 10.00 Fair CLR 81.3 73.8 78% 87 29.96 0.0
02 07:35 SE 5 10.00 Fair CLR 80.8 73.6 79% 86 29.95 0.0
02 07:15 SE 6 10.00 Fair CLR 80.8 73.6 79% 86 29.95 0.0
02 06:55 SE 5 10.00 Fair CLR 81 73.6 85.3 81 78% 86 29.95 0.0
02 06:35 SE 6 10.00 Fair CLR 81.1 73.4 77% 86 29.95 0.0
02 06:15 Calm 10.00 Fair CLR 81.5 73.6 77% 87 29.95 0.0
02 05:55 SE 5 10.00 Fair CLR 81.3 73.4 77% 87 29.94 0.0
02 05:35 SE 5 10.00 Fair CLR 81.5 73.4 77% 87 29.94 0.0
02 05:15 SE 3 10.00 Fair CLR 81.7 73.4 76% 87 29.94 0.0
02 04:55 SE 7 10.00 Fair CLR 81.9 73.4 76% 87 29.94 0.0
02 04:35 SE 6 10.00 Fair CLR 82.2 73.4 75% 88 29.93 0.0
02 04:15 SE 7 10.00 Fair CLR 82.4 73.4 74% 88 29.94 0.0
02 03:55 SE 7 10.00 Fair CLR 82.6 73.2 73% 88 29.94 0.0
02 03:35 SE 7 10.00 Fair CLR 82.8 73 73% 89 29.95 0.0
02 03:15 SE 6 10.00 Fair CLR 83.3 73.4 72% 90 29.95 0.0
02 02:55 SE 8 10.00 Fair CLR 83.1 73.8 73% 90 29.95 0.0
02 02:35 SE 9 10.00 Fair CLR 83.3 73.9 73% 90 29.96 0.0
02 02:15 SE 9 10.00 Fair CLR 83.7 73.8 72% 90 29.96 0.0
02 01:55 SE 13 G 17 10.00 Fair CLR 84.2 73.6 71% 91 29.96 0.0
02 01:35 SE 9 G 18 10.00 Fair CLR 84.6 73.6 70% 92 29.96 0.0
02 01:15 SE 8 10.00 Fair CLR 84.9 73.4 68% 92 29.96 0.0
02 00:55 SE 9 G 17 10.00 Fair CLR 85.5 73.6 103.3 85.5 68% 93 29.96 0.0
02 00:35 SE 8 G 16 10.00 Fair CLR 86.2 73 65% 93 29.95 0.0
02 00:15 SE 13 G 17 10.00 Fair CLR 86.9 72.5 62% 94 29.95 0.0
01 23:55 SE 13 G 18 10.00 Fair CLR 88 72 59% 95 29.95 0.0
01 23:35 SE 13 G 22 10.00 Fair CLR 89.1 70.3 54% 95 29.95 0.0
01 23:15 SE 10 10.00 Fair CLR 89.8 68.9 50% 94 29.95 0.0
01 22:55 SE 9 G 16 10.00 Fair CLR 90.7 67.8 47% 95 29.94 0.0
01 22:35 SE 12 G 17 10.00 Fair CLR 91.8 66.2 43% 95 29.93 0.0
01 21:55 E 8 10.00 Fair CLR 91.6 71.4 52% 99 29.91 0.0
01 21:35 E 8 G 17 10.00 Fair CLR 92.5 71.2 50% 100 29.9 0.0
01 21:15 E 13 G 20 10.00 Fair CLR 93.4 71.6 49% 101 29.88 0.0
01 20:55 E 13 G 21 10.00 Fair CLR 95.5 67.8 40% 100 29.87 0.0
01 20:35 SE 6 10.00 Fair CLR 97.3 58.5 27% 97 29.85 0.0
01 20:15 SE 6 10.00 Fair CLR 98.8 57.9 26% 98 29.85 0.0
01 19:55 SE 10 10.00 Fair CLR 99.5 57.4 25% 99 29.84 0.0
01 19:35 SE 10 10.00 Fair CLR 101.3 57.2 23% 101 29.85 0.0
01 19:15 E 10 10.00 Fair CLR 102.2 56.7 22% 101 29.84 0.0
01 18:55 SE 8 10.00 Fair CLR 103.6 56.3 107.4 99.9 21% 103 29.84 0.0
01 18:35 SE 6 10.00 Fair CLR 104.5 56.3 20% 104 29.84 0.0
01 18:15 SE 6 G 16 10.00 Fair CLR 104.9 56.8 20% 104 29.84 0.0
01 17:55 SE 8 G 16 10.00 Fair CLR 105.1 57.6 21% 105 29.83 0.0
01 17:35 SE 7 10.00 Fair CLR 106 58.3 21% 106 29.83 0.0
01 17:15 Calm 10.00 Fair CLR 106.7 58.5 21% 107 29.84 0.0
01 16:55 E 5 10.00 Fair CLR 106.9 57.9 20% 107 29.84 0.0
01 16:35 SE 6 10.00 Fair CLR 106.3 59 21% 107 29.85 0.0
01 16:15 SE 10 G 18 10.00 Fair CLR 105.4 59.2 22% 106 29.85 0.0
01 15:55 SE 10 G 16 10.00 Fair CLR 103.8 60.6 24% 105 29.86 0.0
01 15:35 E 9 10.00 Fair CLR 105.8 61.2 23% 108 29.87 0.0
01 15:15 S 8 10.00 Fair CLR 105.8 59.5 22% 107 29.88 0.0
01 14:55 E 7 10.00 Fair CLR 105.1 60.6 23% 107 29.89 0.0
01 14:35 SE 9 G 16 10.00 Fair CLR 104.2 61.2 24% 106 29.9 0.0
01 14:15 E 5 10.00 Fair CLR 104.2 60.6 24% 106 29.91 0.0
01 13:55 E 8 10.00 Fair CLR 102.4 61.7 26% 104 29.92 0.0
01 13:35 SE 5 G 9 10.00 Fair CLR 102.2 64 29% 105 29.93 0.0
01 13:15 SE 12 10.00 Fair CLR 100.8 64.9 31% 104 29.94 0.0
01 12:55 SE 8 10.00 Fair CLR 99.7 64.6 99.7 78.4 32% 103 29.95 0.0
01 12:35 SE 8 G 16 10.00 Fair CLR 99.1 66.2 34% 103 29.96 0.0
01 12:15 SE 6 10.00 Fair CLR 97.2 68 39% 102 29.97 0.0
01 11:55 S 8 10.00 Fair CLR 95.7 70 43% 102 29.97 0.0
01 11:35 SE 8 10.00 Fair CLR 93.9 70.7 47% 101 29.98 0.0
01 11:15 SE 3 10.00 Fair CLR 92.7 71.1 49% 100 29.98 0.0
01 10:55 Calm 10.00 Fair CLR 91.2 71.8 53% 99 29.98 0.0
01 10:35 E 6 10.00 Fair CLR 90.3 72.1 55% 98 29.98 0.0
01 10:15 SE 3 10.00 Fair CLR 88.9 72.7 59% 97 29.98 0.0
01 09:35 SE 6 10.00 Fair CLR 85.8 73.4 67% 93 29.98 0.0
01 09:15 SE 6 10.00 Partly Cloudy SCT017 84.2 73.4 70% 91 29.98 0.0
01 08:55 SE 6 10.00 Fair CLR 83.1 73.8 73% 90 29.98 0.0
01 08:35 SE 5 10.00 Fair CLR 81.9 73.6 76% 88 29.98 0.0
01 08:15 Calm 10.00 Fair CLR 80.2 73.6 80% 85 29.98 0.0
01 07:55 Calm 10.00 Fair CLR 79 73.4 83% 82 29.96 0.0
01 07:35 SE 3 10.00 Fair CLR 78.4 73 84% 81 29.95 0.0
01 07:15 Calm 10.00 Fair CLR 78.8 73 83% 82 29.95 0.0
01 06:55 SE 3 10.00 Fair CLR 79.2 73.4 84.2 79.2 83% 83 29.95 0.0
01 06:35 Calm 10.00 Fair CLR 79.7 73.2 81% 84 29.95 0.0
01 06:15 Calm 10.00 Fair CLR 79.7 73 80% 84 29.94 0.0
01 05:55 SE 3 10.00 Fair CLR 80.1 73 79% 84 29.94 0.0
01 05:35 SE 3 10.00 Fair CLR 80.2 72.9 78% 84 29.94 0.0
01 05:15 SE 6 10.00 Fair CLR 80.6 72.9 77% 85 29.94 0.0
01 04:55 SE 7 10.00 Fair CLR 80.6 72.7 77% 85 29.94 0.0
01 04:35 SE 8 10.00 Fair CLR 80.8 72.7 76% 85 29.95 0.0
01 04:15 SE 6 10.00 Fair CLR 81 72.9 76% 86 29.95 0.0
01 03:55 SE 8 10.00 Fair CLR 81.5 72.9 75% 87 29.95 0.0
01 03:35 SE 7 10.00 Fair CLR 81.5 72.9 75% 87 29.95 0.0
01 03:15 SE 7 10.00 Fair CLR 81.5 72.9 75% 87 29.95 0.0
01 02:55 SE 8 10.00 Fair CLR 81.9 73 75% 87 29.95 0.0
01 02:35 SE 8 10.00 Fair CLR 82.2 72.9 73% 88 29.95 0.0
01 02:15 SE 9 G 16 10.00 Fair CLR 82.4 72.7 73% 88 29.95 0.0
01 01:55 SE 9 10.00 Fair CLR 82.8 72.1 70% 88 29.96 0.0
01 01:30 SE 8 G 17 10.00 Fair CLR 83.5 71.2 67% 88 29.97 0.0
01 01:15 SE 8 10.00 Fair CLR 83.8 70.7 65% 89 29.97 0.0
01 00:55 SE 8 10.00 Fair CLR 84.4 69.8 102.6 84.4 62% 89 29.97 0.0
01 00:35 SE 8 10.00 Fair CLR 85.1 68.9 58% 89 29.97 0.0
01 00:15 SE 7 G 17 10.00 Fair CLR 85.6 68.4 56% 89 29.97 0.0
31 23:55 SE 10 G 17 10.00 Fair CLR 86.2 68 55% 90 29.97 0.0
31 23:35 SE 10 G 16 10.00 Fair CLR 86.9 68 53% 90 29.97 0.0
31 23:15 SE 10 G 18 10.00 Fair CLR 87.6 67.6 52% 91 29.96 0.0
31 22:55 SE 10 G 20 10.00 Fair CLR 88.7 66.9 49% 92 29.96 0.0
31 22:35 SE 14 G 22 10.00 Fair CLR 89.6 66.2 46% 92 29.95 0.0
31 22:15 SE 15 G 23 10.00 Fair CLR 90.3 66.2 45% 93 29.94 0.0
31 21:55 SE 15 G 24 10.00 Fair CLR 91.4 65.3 42% 94 29.92 0.0
31 21:35 SE 13 G 25 10.00 Fair CLR 92.7 64.6 40% 95 29.9 0.0
31 21:15 SE 13 G 25 10.00 Fair CLR 94.1 62.2 35% 95 29.89 0.0
31 20:55 SE 15 G 24 10.00 Fair CLR 95.7 59.9 30% 96 29.87 0.0
31 20:35 SE 14 G 18 10.00 Fair CLR 96.8 59.9 29% 97 29.86 0.0
31 20:15 SE 7 G 16 10.00 Fair CLR 97.7 58.6 27% 97 29.85 0.0
31 19:55 SE 9 10.00 Fair CLR 98.8 57.4 25% 98 29.85 0.0
31 19:35 SE 12 G 20 10.00 Fair CLR 99.9 57.7 25% 99 29.84 0.0
31 19:15 SE 14 G 20 10.00 Fair CLR 101.5 57.2 23% 101 29.83 0.0
31 18:35 SE 14 G 20 10.00 Fair CLR 104 55 20% 103 29.82 0.0
31 18:15 SE 14 G 20 10.00 Fair CLR 104.5 55.6 20% 104 29.83 0.0
31 17:55 SE 8 G 17 10.00 Fair CLR 105.1 55.4 19% 104 29.83 0.0
31 17:35 SE 10 G 24 10.00 Fair CLR 106.2 55.8 19% 105 29.83 0.0
31 17:15 SE 9 G 18 10.00 Fair CLR 106.2 55.9 19% 105 29.83 0.0
31 16:55 SE 6 G 18 10.00 Fair CLR 106.5 55.4 18% 106 29.84 0.0
31 16:35 SE 10 G 18 10.00 Fair CLR 106.7 55.2 18% 106 29.85 0.0
31 16:15 SE 5 G 17 10.00 Fair CLR 106.9 56.5 19% 106 29.86 0.0
31 15:55 SE 9 G 22 10.00 Fair CLR 106.9 57 19% 107 29.87 0.0
31 15:35 SE 6 10.00 Fair CLR 106.9 55.4 18% 106 29.88 0.0
31 15:15 E 6 10.00 Fair CLR 106.7 55.8 19% 106 29.89 0.0
31 14:55 SE 9 10.00 Fair CLR 105.8 57.9 21% 106 29.9 0.0
31 14:35 E 14 G 18 10.00 Fair CLR 104.7 58.3 22% 105 29.9 0.0
31 14:15 SE 9 G 21 10.00 Fair CLR 103.5 60.3 24% 105 29.92 0.0
31 13:55 SE 9 G 20 10.00 Fair CLR 104.2 61.2 24% 106 29.92 0.0
31 13:35 SE 5 10.00 Fair CLR 102.9 62.2 26% 105 29.93 0.0
31 13:15 SE 8 G 16 10.00 Fair CLR 101.5 62.2 28% 103 29.94 0.0
31 12:55 E 7 10.00 Fair CLR 99.7 64.2 99.9 80.1 31% 103 29.95 0.0
31 12:35 SE 10 10.00 Fair CLR 99.7 63.7 31% 102 29.95 0.0
31 12:15 SE 9 10.00 Fair CLR 98.8 65.1 33% 102 29.96 0.0
31 11:55 SE 7 10.00 Fair CLR 96.4 67.1 38% 101 29.96 0.0
31 11:35 SE 12 G 16 10.00 Fair CLR 93.9 69.6 45% 100 29.97 0.0
31 11:15 SE 6 10.00 Fair CLR 93 70.3 48% 99 29.97 0.0
31 10:55 SE 6 10.00 Fair CLR 91.8 71.2 51% 99 29.97 0.0
31 10:35 S 7 10.00 Fair CLR 90.9 71.8 54% 98 29.98 0.0
31 10:15 S 3 10.00 Fair CLR 89.6 72.5 57% 97 29.98 0.0
31 09:55 SE 8 10.00 Partly Cloudy SCT022 88 72.7 61% 95 29.98 0.0
31 09:35 S 8 10.00 Partly Cloudy SCT020 86.4 73.6 66% 94 29.98 0.0
31 09:15 S 6 10.00 Partly Cloudy SCT016 85.1 74.1 70% 93 29.98 0.0
31 08:55 SE 9 7.00 Fair CLR 83.5 74.3 74% 91 29.97 0.0
31 08:35 SE 5 7.00 Fair CLR 82.4 74.3 77% 89 29.97 0.0
31 08:15 SE 6 7.00 Fair CLR 81.5 74.3 79% 87 29.96 0.0
31 07:55 SE 5 7.00 Fair CLR 80.6 74.3 81% 86 29.95 0.0
31 07:35 SE 5 7.00 Fair CLR 80.1 73.9 82% 85 29.94 0.0
31 07:15 SE 3 10.00 Fair CLR 80.2 73.6 80% 85 29.94 0.0
31 06:55 SE 3 10.00 Fair CLR 80.6 73.8 85.6 80.6 80% 85 29.94 0.0
31 06:35 SE 5 10.00 Fair CLR 80.8 73.4 78% 86 29.93 0.0
31 06:15 SE 5 10.00 Fair CLR 81.1 73.4 77% 86 29.93 0.0
31 05:55 SE 3 10.00 Fair CLR 81.5 73.4 77% 87 29.93 0.0
31 05:35 SE 6 10.00 Fair CLR 81.7 73 75% 87 29.92 0.0
31 05:15 SE 6 10.00 Fair CLR 82 73 74% 87 29.93 0.0
31 04:55 SE 5 10.00 Fair CLR 82.4 72.9 73% 88 29.93 0.0
31 04:35 SE 6 10.00 Fair CLR 82.4 72.9 73% 88 29.93 0.0
31 04:15 SE 8 10.00 Fair CLR 82.6 72.9 73% 88 29.93 0.0
31 03:55 SE 6 10.00 Fair CLR 82.8 72.7 72% 88 29.93 0.0
31 03:35 SE 9 10.00 Fair CLR 83.1 72.5 70% 89 29.94 0.0
31 03:15 SE 8 G 17 10.00 Fair CLR 83.3 72.3 70% 89 29.95 0.0
31 02:55 SE 8 G 17 10.00 Fair CLR 83.3 72.5 70% 89 29.94 0.0
31 02:35 SE 9 G 17 10.00 Fair CLR 83.7 72.5 69% 90 29.94 0.0
31 02:15 SE 12 10.00 Fair CLR 84 72.5 68% 90 29.95 0.0
31 01:55 SE 10 G 16 10.00 Fair CLR 84.2 72 67% 90 29.96 0.0
Date Time (cdt) Wind (mph) Vis. (mi.) Weather Sky Cond. Air Dwpt Max. Min. Relative Humidity Wind Chill (°F) Heat Index (°F) altimeter (in) sea level (mb) 1 hr 3 hr 6 hr
6 hour
Temperature (ºF) Pressure Precipitation (in)